Terminal Aerodrome Forecast
Issued by NWS Portland, OR

Home | Current Version | Previous Version | Text Only | Print | Product List | Glossary On
Versions: 1 2 3 4 5 6 7 8 9 10 11 12 13 14 15 16 17 18 19 20 21 22 23 24 25 26
000
FTUS46 KPQR 192342
TAFHIO
TAF
KHIO 192342Z 2000/2024 23012KT P6SM SCT030 BKN070
      TEMPO 2000/2002 -SHRA
     FM200200 23005KT P6SM -SHRA SCT030 BKN050
     FM200700 19004KT P6SM -RA OVC040
     FM201100 19005KT 5SM -RA BR BKN015 OVC030
     FM201700 24007KT 6SM -RA BR SCT015 OVC030=

USA.gov is the U.S. government's official web portal to all federal, state and local government web resources and services.